createdAt,value
2023-04-15T00:01:38.018Z,18.74
2023-04-15T00:04:05.419Z,18.73
2023-04-15T00:06:33.049Z,18.73
2023-04-15T00:09:00.931Z,18.72
2023-04-15T00:11:28.970Z,18.74
2023-04-15T00:13:56.221Z,18.72
2023-04-15T00:16:23.862Z,18.72
2023-04-15T00:18:51.738Z,18.72
2023-04-15T00:21:19.238Z,18.72
2023-04-15T00:23:49.764Z,18.72
2023-04-15T00:26:17.241Z,18.72
2023-04-15T00:28:44.656Z,18.72
2023-04-15T00:31:12.431Z,18.73
2023-04-15T00:33:40.158Z,18.71
2023-04-15T00:36:08.659Z,18.71
2023-04-15T00:38:38.242Z,18.72
2023-04-15T00:41:05.824Z,18.71
2023-04-15T00:43:33.279Z,18.71
2023-04-15T00:46:02.347Z,18.71
2023-04-15T00:48:30.211Z,18.71
2023-04-15T00:50:57.997Z,18.71
2023-04-15T00:53:25.224Z,18.69
2023-04-15T00:55:54.237Z,18.71
2023-04-15T00:58:21.780Z,18.71
2023-04-15T01:00:49.510Z,18.71
2023-04-15T01:03:16.973Z,18.70
2023-04-15T01:05:44.719Z,18.70
2023-04-15T01:08:12.576Z,18.71
2023-04-15T01:10:40.349Z,18.70
2023-04-15T01:13:07.855Z,18.69
2023-04-15T01:15:38.655Z,18.70
2023-04-15T01:18:07.461Z,18.70
2023-04-15T01:20:36.349Z,18.70
2023-04-15T01:23:03.755Z,18.69
2023-04-15T01:25:35.305Z,18.70
2023-04-15T01:28:03.297Z,18.69
2023-04-15T01:30:34.801Z,18.69
2023-04-15T01:33:02.778Z,18.69
2023-04-15T01:35:30.470Z,18.68
2023-04-15T01:38:04.261Z,18.68
2023-04-15T01:40:32.222Z,18.68
2023-04-15T01:42:59.853Z,18.67
2023-04-15T01:45:27.329Z,18.67
2023-04-15T01:47:55.886Z,18.67
2023-04-15T01:50:23.437Z,18.67
2023-04-15T01:52:51.039Z,18.68
2023-04-15T01:55:18.606Z,18.66
2023-04-15T01:57:46.480Z,18.67
2023-04-15T02:00:14.121Z,18.66
2023-04-15T02:02:41.592Z,18.66
2023-04-15T02:05:09.564Z,18.67
2023-04-15T02:07:37.940Z,18.67
2023-04-15T02:10:05.865Z,18.67
2023-04-15T02:12:33.355Z,18.66
2023-04-15T02:15:00.841Z,18.65
2023-04-15T02:17:28.241Z,18.66
2023-04-15T02:19:59.292Z,18.66
2023-04-15T02:22:26.754Z,18.65
2023-04-15T02:24:54.328Z,18.65
2023-04-15T02:27:22.488Z,18.66
2023-04-15T02:29:51.245Z,18.65
2023-04-15T02:32:18.847Z,18.64
2023-04-15T02:34:46.500Z,18.65
2023-04-15T02:37:14.600Z,18.63
2023-04-15T02:39:42.143Z,18.64
2023-04-15T02:42:09.365Z,18.64
2023-04-15T02:44:36.884Z,18.64
2023-04-15T02:47:06.502Z,18.62
2023-04-15T02:49:34.134Z,18.64
2023-04-15T02:52:01.606Z,18.63
2023-04-15T02:54:29.912Z,18.63
2023-04-15T02:56:57.172Z,18.62
2023-04-15T02:59:24.728Z,18.62
2023-04-15T03:01:52.175Z,18.61
2023-04-15T03:04:20.892Z,18.62
2023-04-15T03:06:48.195Z,18.62
2023-04-15T03:09:15.666Z,18.62
2023-04-15T03:11:43.001Z,18.62
2023-04-15T03:14:10.505Z,18.61
2023-04-15T03:16:37.766Z,18.60
2023-04-15T03:19:05.282Z,18.60
2023-04-15T03:21:32.470Z,18.61
2023-04-15T03:23:59.973Z,18.61
2023-04-15T03:26:29.226Z,18.59
2023-04-15T03:28:57.434Z,18.60
2023-04-15T03:31:25.152Z,18.59
2023-04-15T03:33:52.732Z,18.58
2023-04-15T03:36:19.976Z,18.59
2023-04-15T03:38:47.500Z,18.58
2023-04-15T03:41:14.937Z,18.58
2023-04-15T03:43:43.139Z,18.59
2023-04-15T03:46:10.353Z,18.57
2023-04-15T03:48:37.813Z,18.58
2023-04-15T03:51:05.892Z,18.57
2023-04-15T03:53:33.384Z,18.57
2023-04-15T03:56:00.784Z,18.57
2023-04-15T03:58:28.326Z,18.57
2023-04-15T04:00:55.595Z,18.57
2023-04-15T04:03:23.324Z,18.55
2023-04-15T04:05:51.430Z,18.56
2023-04-15T04:08:19.671Z,18.56
2023-04-15T04:10:47.021Z,18.56
2023-04-15T04:13:14.568Z,18.56
2023-04-15T04:15:42.097Z,18.55
2023-04-15T04:18:09.643Z,18.55
2023-04-15T04:20:36.995Z,18.56
2023-04-15T04:23:04.528Z,18.56
2023-04-15T04:25:32.179Z,18.55
2023-04-15T04:28:00.275Z,18.55
2023-04-15T04:30:27.497Z,18.55
2023-04-15T04:32:55.056Z,18.55
2023-04-15T04:35:22.729Z,18.55
2023-04-15T04:37:50.862Z,18.55
2023-04-15T04:40:18.156Z,18.55
2023-04-15T04:42:46.021Z,18.55
2023-04-15T04:45:13.495Z,18.54
2023-04-15T04:47:41.113Z,18.54
2023-04-15T04:50:09.134Z,18.54
2023-04-15T04:52:36.830Z,18.54
2023-04-15T04:55:04.481Z,18.54
2023-04-15T04:57:32.045Z,18.55
2023-04-15T04:59:59.364Z,18.55
2023-04-15T05:02:27.502Z,18.53
2023-04-15T05:04:55.236Z,18.55
2023-04-15T05:07:22.789Z,18.54
2023-04-15T05:09:51.063Z,18.55
2023-04-15T05:12:18.613Z,18.54
2023-04-15T05:14:46.756Z,18.56
2023-04-15T05:17:14.325Z,18.54
2023-04-15T05:19:41.498Z,18.56
2023-04-15T05:22:08.996Z,18.55
2023-04-15T05:24:36.471Z,18.55
2023-04-15T05:27:04.187Z,18.56
2023-04-15T05:29:31.445Z,18.57
2023-04-15T05:31:58.960Z,18.56
2023-04-15T05:34:26.417Z,18.55
2023-04-15T05:36:53.885Z,18.53
2023-04-15T05:39:21.378Z,18.49
2023-04-15T05:41:49.178Z,18.45
2023-04-15T05:44:16.554Z,18.43
2023-04-15T05:46:44.188Z,18.39
2023-04-15T05:49:12.075Z,18.37
2023-04-15T05:51:39.568Z,18.34
2023-04-15T05:54:06.863Z,18.33
2023-04-15T05:56:34.700Z,18.30
2023-04-15T05:59:02.359Z,18.29
2023-04-15T06:01:30.506Z,18.27
2023-04-15T06:03:57.964Z,18.24
2023-04-15T06:06:27.188Z,18.24
2023-04-15T06:08:55.908Z,18.24
2023-04-15T06:11:23.399Z,18.25
2023-04-15T06:13:50.790Z,18.25
2023-04-15T06:16:18.324Z,18.27
2023-04-15T06:18:45.731Z,18.29
2023-04-15T06:21:13.319Z,18.29
2023-04-15T06:23:41.357Z,18.31
2023-04-15T06:26:08.865Z,18.32
2023-04-15T06:28:36.136Z,18.34
2023-04-15T06:31:03.711Z,18.37
2023-04-15T06:33:31.886Z,18.38
2023-04-15T06:35:59.402Z,18.40
2023-04-15T06:38:26.633Z,18.41
2023-04-15T06:40:54.188Z,18.43
2023-04-15T06:43:21.431Z,18.43
2023-04-15T06:45:48.949Z,18.43
2023-04-15T06:48:16.316Z,18.44
2023-04-15T06:50:43.909Z,18.44
2023-04-15T06:53:12.361Z,18.44
2023-04-15T06:55:40.492Z,18.46
2023-04-15T06:58:07.772Z,18.48
2023-04-15T07:00:35.600Z,18.49
2023-04-15T07:03:03.745Z,18.48
2023-04-15T07:05:32.451Z,18.46
2023-04-15T07:08:00.367Z,18.45
2023-04-15T07:10:27.904Z,18.45
2023-04-15T07:12:55.280Z,18.44
2023-04-15T07:15:23.529Z,18.43
2023-04-15T07:17:51.411Z,18.43
2023-04-15T07:20:19.150Z,18.43
2023-04-15T07:22:46.467Z,18.44
2023-04-15T07:25:14.010Z,18.44
2023-04-15T07:27:41.655Z,18.44
2023-04-15T07:30:09.784Z,18.24
2023-04-15T07:32:37.057Z,18.07
2023-04-15T07:35:05.024Z,17.94
2023-04-15T07:37:32.303Z,17.86
2023-04-15T07:39:59.820Z,17.83
2023-04-15T07:42:27.565Z,17.84
2023-04-15T07:44:55.064Z,17.84
2023-04-15T07:47:22.373Z,17.71
2023-04-15T07:49:51.503Z,17.60
2023-04-15T07:52:18.992Z,17.52
2023-04-15T07:54:46.878Z,17.33
2023-04-15T07:57:14.094Z,17.30
2023-04-15T07:59:41.773Z,17.21
2023-04-15T08:02:10.864Z,17.22
2023-04-15T08:04:39.478Z,17.22
2023-04-15T08:07:07.094Z,17.31
2023-04-15T08:09:34.617Z,17.43
2023-04-15T08:12:02.110Z,17.44
2023-04-15T08:14:29.749Z,17.42
2023-04-15T08:16:57.157Z,17.38
2023-04-15T08:19:24.698Z,17.40
2023-04-15T08:21:52.025Z,17.43
2023-04-15T08:24:19.700Z,17.37
2023-04-15T08:26:47.190Z,17.36
2023-04-15T08:29:14.865Z,17.32
2023-04-15T08:31:42.356Z,17.31
2023-04-15T08:34:12.446Z,17.35
2023-04-15T08:36:43.019Z,17.45
2023-04-15T08:39:11.321Z,17.46
2023-04-15T08:41:50.043Z,17.54
2023-04-15T08:44:18.163Z,17.61
2023-04-15T08:46:45.727Z,17.65
2023-04-15T08:49:13.869Z,17.68
2023-04-15T08:51:41.851Z,17.66
2023-04-15T08:54:10.617Z,17.65
2023-04-15T08:56:39.024Z,17.63
2023-04-15T08:59:07.517Z,17.64
2023-04-15T09:01:35.372Z,17.64
2023-04-15T09:04:06.545Z,17.69
2023-04-15T09:06:34.623Z,17.67
2023-04-15T09:09:02.376Z,17.69
2023-04-15T09:11:31.441Z,17.65
2023-04-15T09:13:59.072Z,17.67
2023-04-15T09:16:26.429Z,17.69
2023-04-15T09:18:54.382Z,17.74
2023-04-15T09:21:23.525Z,17.72
2023-04-15T09:23:57.589Z,17.69
2023-04-15T09:26:40.105Z,17.71
2023-04-15T09:29:14.470Z,17.72
2023-04-15T09:31:42.765Z,17.71
2023-04-15T09:34:10.568Z,17.72
2023-04-15T09:36:57.450Z,17.73
2023-04-15T09:39:25.013Z,17.76
2023-04-15T09:42:06.927Z,17.75
2023-04-15T09:44:34.641Z,17.73
2023-04-15T09:47:02.314Z,17.78
2023-04-15T09:49:29.980Z,17.81
2023-04-15T09:52:05.660Z,17.84
2023-04-15T09:54:38.282Z,17.89
2023-04-15T09:57:10.320Z,17.93
2023-04-15T09:59:38.101Z,17.93
2023-04-15T10:02:07.106Z,17.93
2023-04-15T10:04:39.865Z,17.93
2023-04-15T10:07:09.500Z,17.96
2023-04-15T10:09:39.185Z,17.95
2023-04-15T10:12:07.234Z,17.95
2023-04-15T10:14:38.734Z,17.97
2023-04-15T10:17:08.908Z,17.95
2023-04-15T10:19:38.245Z,17.94
2023-04-15T10:22:06.600Z,17.94
2023-04-15T10:24:34.540Z,17.94
2023-04-15T10:27:04.510Z,17.97
2023-04-15T10:29:32.041Z,18.00
2023-04-15T10:31:59.932Z,18.01
2023-04-15T10:34:28.279Z,18.01
2023-04-15T10:36:57.416Z,17.98
2023-04-15T10:39:34.366Z,17.97
2023-04-15T10:42:10.311Z,17.96
2023-04-15T10:44:53.784Z,17.94
2023-04-15T10:47:22.420Z,17.96
2023-04-15T10:50:02.410Z,17.92
2023-04-15T10:52:29.878Z,17.94
2023-04-15T10:55:17.902Z,17.96
2023-04-15T10:57:45.506Z,17.98
2023-04-15T11:00:14.232Z,17.97
2023-04-15T11:02:48.113Z,17.97
2023-04-15T11:05:17.318Z,17.96
2023-04-15T11:07:44.784Z,17.98
2023-04-15T11:10:18.054Z,18.00
2023-04-15T11:12:46.010Z,18.01
2023-04-15T11:15:33.426Z,18.01
2023-04-15T11:18:25.130Z,17.99
2023-04-15T11:21:02.077Z,18.00
2023-04-15T11:23:31.325Z,18.05
2023-04-15T11:26:00.341Z,18.06
2023-04-15T11:28:30.358Z,18.03
2023-04-15T11:30:58.784Z,17.99
2023-04-15T11:33:27.032Z,17.98
2023-04-15T11:35:55.215Z,17.95
2023-04-15T11:38:22.803Z,17.99
2023-04-15T11:40:51.401Z,18.00
2023-04-15T11:43:23.460Z,18.00
2023-04-15T11:45:55.493Z,17.97
2023-04-15T11:48:28.347Z,17.96
2023-04-15T11:51:07.035Z,17.97
2023-04-15T11:53:52.566Z,17.96
2023-04-15T11:56:23.087Z,17.96
2023-04-15T11:58:59.965Z,17.93
2023-04-15T12:01:54.324Z,17.95
2023-04-15T12:04:25.464Z,17.96
2023-04-15T12:06:53.875Z,17.95
2023-04-15T12:09:21.605Z,17.94
2023-04-15T12:11:51.191Z,17.95
2023-04-15T12:14:24.327Z,17.93
2023-04-15T12:16:54.409Z,17.94
2023-04-15T12:19:28.646Z,17.95
2023-04-15T12:22:02.268Z,17.97
2023-04-15T12:24:35.901Z,18.01
2023-04-15T12:27:08.514Z,18.05
2023-04-15T12:29:38.690Z,18.09
2023-04-15T12:32:12.519Z,18.13
2023-04-15T12:34:45.118Z,18.13
2023-04-15T12:37:14.304Z,18.09
2023-04-15T12:39:44.578Z,18.05
2023-04-15T12:42:12.942Z,18.10
2023-04-15T12:44:40.789Z,18.15
2023-04-15T12:47:09.776Z,18.15
2023-04-15T12:49:37.713Z,18.19
2023-04-15T12:52:05.609Z,18.18
2023-04-15T12:54:34.365Z,18.20
2023-04-15T12:57:05.473Z,18.18
2023-04-15T12:59:35.575Z,18.19
2023-04-15T13:02:04.030Z,18.20
2023-04-15T13:04:32.000Z,18.23
2023-04-15T13:06:59.691Z,18.22
2023-04-15T13:09:27.119Z,18.21
2023-04-15T13:11:54.989Z,18.21
2023-04-15T13:14:22.351Z,18.23
2023-04-15T13:16:50.515Z,18.23
2023-04-15T13:19:17.756Z,18.20
2023-04-15T13:21:45.396Z,18.23
2023-04-15T13:24:12.675Z,18.26
2023-04-15T13:26:40.228Z,18.27
2023-04-15T13:29:08.529Z,18.28
2023-04-15T13:31:36.805Z,18.29
2023-04-15T13:34:04.241Z,18.29
2023-04-15T13:36:31.962Z,18.27
2023-04-15T13:39:00.042Z,18.29
2023-04-15T13:41:27.634Z,18.28
2023-04-15T13:43:54.905Z,18.28
2023-04-15T13:46:23.021Z,18.28
2023-04-15T13:48:50.369Z,18.23
2023-04-15T13:51:17.833Z,18.16
2023-04-15T13:53:45.008Z,18.11
2023-04-15T13:56:12.927Z,18.09
2023-04-15T13:58:40.851Z,18.06
2023-04-15T14:01:08.452Z,18.01
2023-04-15T14:03:36.847Z,18.01
2023-04-15T14:06:05.906Z,17.99
2023-04-15T14:08:33.354Z,17.98
2023-04-15T14:11:01.359Z,17.99
2023-04-15T14:13:28.797Z,17.99
2023-04-15T14:16:04.122Z,18.03
2023-04-15T14:18:31.416Z,18.02
2023-04-15T14:20:59.967Z,18.05
2023-04-15T14:23:27.599Z,18.06
2023-04-15T14:25:55.367Z,18.07
2023-04-15T14:28:22.600Z,18.06
2023-04-15T14:30:50.307Z,18.06
2023-04-15T14:33:17.556Z,18.06
2023-04-15T14:35:45.789Z,18.06
2023-04-15T14:38:13.019Z,18.09
2023-04-15T14:40:41.567Z,18.15
2023-04-15T14:43:08.974Z,18.16
2023-04-15T14:45:39.545Z,18.14
2023-04-15T14:48:10.138Z,18.05
2023-04-15T14:50:37.870Z,18.05
2023-04-15T14:53:05.688Z,18.07
2023-04-15T14:55:33.475Z,18.05
2023-04-15T14:58:02.319Z,18.05
2023-04-15T15:00:30.384Z,18.06
2023-04-15T15:02:58.698Z,18.05
2023-04-15T15:05:26.660Z,18.08
2023-04-15T15:07:53.967Z,18.04
2023-04-15T15:10:32.643Z,18.05
2023-04-15T15:13:10.353Z,18.06
2023-04-15T15:15:38.763Z,18.06
2023-04-15T15:18:06.685Z,18.07
2023-04-15T15:20:35.432Z,18.08
2023-04-15T15:23:03.768Z,18.06
2023-04-15T15:25:31.598Z,18.04
2023-04-15T15:27:58.883Z,18.02
2023-04-15T15:30:26.404Z,18.01
2023-04-15T15:32:53.836Z,18.00
2023-04-15T15:35:22.938Z,17.99
2023-04-15T15:37:50.230Z,17.98
2023-04-15T15:40:17.814Z,17.93
2023-04-15T15:42:47.222Z,17.92
2023-04-15T15:45:14.740Z,17.91
2023-04-15T15:47:42.804Z,17.92
2023-04-15T15:50:10.495Z,17.93
2023-04-15T15:52:37.858Z,17.93
2023-04-15T15:55:06.337Z,17.94
2023-04-15T15:57:34.075Z,17.92
2023-04-15T16:00:11.138Z,17.93
2023-04-15T16:05:09.581Z,17.93
2023-04-15T16:07:36.794Z,17.94
2023-04-15T16:10:04.760Z,17.94
2023-04-15T16:12:33.839Z,17.93
2023-04-15T16:15:02.922Z,17.92
2023-04-15T16:17:30.199Z,17.92
2023-04-15T16:20:01.186Z,17.91
2023-04-15T16:22:29.581Z,17.89
2023-04-15T16:24:57.074Z,17.87
2023-04-15T16:27:24.416Z,17.88
2023-04-15T16:29:52.155Z,17.87
2023-04-15T16:32:19.752Z,17.85
2023-04-15T16:34:47.543Z,17.87
2023-04-15T16:37:14.936Z,17.87
2023-04-15T16:39:43.605Z,17.85
2023-04-15T16:42:11.110Z,17.83
2023-04-15T16:44:38.997Z,17.83
2023-04-15T16:47:06.495Z,17.82
2023-04-15T16:49:35.503Z,17.82
2023-04-15T16:52:02.779Z,17.81
2023-04-15T16:54:30.416Z,17.80
2023-04-15T16:56:58.562Z,17.81
2023-04-15T16:59:26.401Z,17.78
2023-04-15T17:01:55.375Z,17.78
2023-04-15T17:04:23.429Z,17.78
2023-04-15T17:06:51.219Z,17.87
2023-04-15T17:09:19.346Z,17.93
2023-04-15T17:11:46.555Z,17.98
2023-04-15T17:14:14.211Z,18.03
2023-04-15T17:16:43.107Z,18.06
2023-04-15T17:19:11.408Z,18.06
2023-04-15T17:21:38.755Z,18.08
2023-04-15T17:24:06.607Z,18.11
2023-04-15T17:26:34.023Z,18.12
2023-04-15T17:29:01.510Z,18.14
2023-04-15T17:31:30.356Z,18.16
2023-04-15T17:34:06.658Z,18.15
2023-04-15T17:36:35.412Z,18.17
2023-04-15T17:39:03.683Z,18.17
2023-04-15T17:41:31.423Z,18.19
2023-04-15T17:43:59.010Z,18.18
2023-04-15T17:46:26.895Z,18.19
2023-04-15T17:48:55.669Z,18.20
2023-04-15T17:51:22.976Z,18.20
2023-04-15T17:53:51.124Z,18.20
2023-04-15T17:56:18.391Z,18.21
2023-04-15T17:58:45.994Z,18.22
2023-04-15T18:01:13.517Z,18.22
2023-04-15T18:03:41.279Z,18.24
2023-04-15T18:06:08.745Z,18.23
2023-04-15T18:08:36.606Z,18.24
2023-04-15T18:11:04.632Z,18.25
2023-04-15T18:13:32.436Z,18.23
2023-04-15T18:15:59.688Z,18.25
2023-04-15T18:18:28.308Z,18.24
2023-04-15T18:20:55.603Z,18.25
2023-04-15T18:23:23.075Z,18.25
2023-04-15T18:25:50.815Z,18.26
2023-04-15T18:28:18.593Z,18.26
2023-04-15T18:30:46.018Z,18.26
2023-04-15T18:33:13.714Z,18.26
2023-04-15T18:35:42.925Z,18.25
2023-04-15T18:38:10.915Z,18.26
2023-04-15T18:40:39.646Z,18.26
2023-04-15T18:43:09.350Z,18.27
2023-04-15T18:45:36.897Z,18.27
2023-04-15T18:48:15.751Z,18.27
2023-04-15T18:50:48.338Z,18.29
2023-04-15T18:53:16.338Z,18.28
2023-04-15T18:55:43.611Z,18.27
2023-04-15T18:58:11.247Z,18.27
2023-04-15T19:00:41.612Z,18.27
2023-04-15T19:03:10.514Z,18.28
2023-04-15T19:05:38.025Z,18.27
2023-04-15T19:08:05.832Z,18.29
2023-04-15T19:10:34.507Z,18.29
2023-04-15T19:13:04.328Z,18.29
2023-04-15T19:15:32.075Z,18.28
2023-04-15T19:17:59.941Z,18.29
2023-04-15T19:20:27.437Z,18.30
2023-04-15T19:22:55.458Z,18.30
2023-04-15T19:25:22.955Z,18.29
2023-04-15T19:27:50.779Z,18.29
2023-04-15T19:30:18.343Z,18.30
2023-04-15T19:32:45.933Z,18.30
2023-04-15T19:35:13.419Z,18.29
2023-04-15T19:37:41.465Z,18.30
2023-04-15T19:40:09.572Z,18.29
2023-04-15T19:42:37.454Z,18.29
2023-04-15T19:45:05.087Z,18.30
2023-04-15T19:47:33.717Z,18.30
2023-04-15T19:50:01.136Z,18.32
2023-04-15T19:52:28.724Z,18.32
2023-04-15T19:54:56.114Z,18.31
2023-04-15T19:57:23.679Z,18.32
2023-04-15T19:59:50.971Z,18.31
2023-04-15T20:02:18.581Z,18.31
2023-04-15T20:04:46.106Z,18.32
2023-04-15T20:07:13.867Z,18.32
2023-04-15T20:09:43.708Z,18.30
2023-04-15T20:12:51.184Z,18.31
2023-04-15T20:14:58.729Z,18.32
2023-04-15T20:17:26.369Z,18.32
2023-04-15T20:19:53.606Z,18.32
2023-04-15T20:22:21.144Z,18.32
2023-04-15T20:24:48.451Z,18.32
2023-04-15T20:27:16.120Z,18.33
2023-04-15T20:29:43.403Z,18.32
2023-04-15T20:32:11.641Z,18.32
2023-04-15T20:34:40.510Z,18.33
2023-04-15T20:37:08.051Z,18.31
2023-04-15T20:39:35.458Z,18.31
2023-04-15T20:42:03.007Z,18.32
2023-04-15T20:44:30.450Z,18.31
2023-04-15T20:46:57.999Z,18.31
2023-04-15T20:49:25.323Z,18.31
2023-04-15T20:51:52.881Z,18.32
2023-04-15T20:54:20.461Z,18.31
2023-04-15T20:56:48.081Z,18.31
2023-04-15T20:59:15.502Z,18.30
2023-04-15T21:01:43.314Z,18.30
2023-04-15T21:04:10.682Z,18.29
2023-04-15T21:06:38.557Z,18.30
2023-04-15T21:09:08.453Z,18.30
2023-04-15T21:14:08.003Z,18.29
2023-04-15T21:16:35.722Z,18.29
2023-04-15T21:19:03.234Z,18.30
2023-04-15T21:21:31.899Z,18.30
2023-04-15T21:23:59.721Z,18.30
2023-04-15T21:26:27.429Z,18.30
2023-04-15T21:28:54.715Z,18.30
2023-04-15T21:31:23.022Z,18.29
2023-04-15T21:33:50.445Z,18.29
2023-04-15T21:36:18.012Z,18.28
2023-04-15T21:38:45.323Z,18.29
2023-04-15T21:41:13.449Z,18.28
2023-04-15T21:43:40.670Z,18.29
2023-04-15T21:46:23.258Z,18.28
2023-04-15T21:48:55.596Z,18.28
2023-04-15T21:51:23.180Z,18.28
2023-04-15T21:53:50.777Z,18.28
2023-04-15T21:56:20.561Z,18.28
2023-04-15T21:58:47.789Z,18.28
2023-04-15T22:01:16.950Z,18.28
2023-04-15T22:03:44.551Z,18.29
2023-04-15T22:06:13.677Z,18.28
2023-04-15T22:08:55.363Z,18.28
2023-04-15T22:11:30.782Z,18.27
2023-04-15T22:13:58.847Z,18.28
2023-04-15T22:16:26.965Z,18.28
2023-04-15T22:18:55.323Z,18.28
2023-04-15T22:21:23.530Z,18.27
2023-04-15T22:23:51.569Z,18.27
2023-04-15T22:26:20.284Z,18.27
2023-04-15T22:28:48.035Z,18.27
2023-04-15T22:31:15.850Z,18.27
2023-04-15T22:33:43.204Z,18.27
2023-04-15T22:36:10.752Z,18.27
2023-04-15T22:38:38.170Z,18.26
2023-04-15T22:41:06.006Z,18.27
2023-04-15T22:43:33.296Z,18.26
2023-04-15T22:46:01.179Z,18.25
2023-04-15T22:48:28.543Z,18.25
2023-04-15T22:50:56.146Z,18.26
2023-04-15T22:53:23.520Z,18.25
2023-04-15T22:55:51.680Z,18.25
2023-04-15T22:58:18.967Z,18.25
2023-04-15T23:00:46.552Z,18.23
2023-04-15T23:03:13.961Z,18.24
2023-04-15T23:05:42.440Z,18.24
2023-04-15T23:08:09.808Z,18.25
2023-04-15T23:10:40.112Z,18.24
2023-04-15T23:13:07.398Z,18.25
2023-04-15T23:15:34.984Z,18.24
2023-04-15T23:18:02.444Z,18.24
2023-04-15T23:20:29.958Z,18.23
2023-04-15T23:22:57.205Z,18.23
2023-04-15T23:25:24.810Z,18.24
2023-04-15T23:27:52.072Z,18.23
2023-04-15T23:30:19.596Z,18.23
2023-04-15T23:32:47.065Z,18.22
2023-04-15T23:35:14.663Z,18.22
2023-04-15T23:37:41.930Z,18.23
2023-04-15T23:40:09.984Z,18.22
2023-04-15T23:42:37.200Z,18.23
2023-04-15T23:45:05.372Z,18.21
2023-04-15T23:47:32.719Z,18.21
2023-04-15T23:50:00.422Z,18.22
2023-04-15T23:52:28.239Z,18.22
2023-04-15T23:54:55.782Z,18.21
2023-04-15T23:57:23.197Z,18.20
2023-04-15T23:59:50.714Z,18.20
